sensor_id;sensor_type;location;lat;lon;timestamp;temperature;humidity
53752;DHT22;41095;53.090;6.692;2022-09-09T00:02:04;14.60;99.90
53752;DHT22;41095;53.090;6.692;2022-09-09T00:04:35;14.60;99.90
53752;DHT22;41095;53.090;6.692;2022-09-09T00:07:30;14.60;99.90
53752;DHT22;41095;53.090;6.692;2022-09-09T00:10:34;14.60;99.90
53752;DHT22;41095;53.090;6.692;2022-09-09T00:13:25;14.60;99.90
53752;DHT22;41095;53.090;6.692;2022-09-09T00:16:07;14.50;99.90
53752;DHT22;41095;53.090;6.692;2022-09-09T00:21:17;14.50;99.90
53752;DHT22;41095;53.090;6.692;2022-09-09T00:23:55;14.50;99.90
53752;DHT22;41095;53.090;6.692;2022-09-09T00:26:51;14.50;99.90
53752;DHT22;41095;53.090;6.692;2022-09-09T00:29:34;14.40;99.90
53752;DHT22;41095;53.090;6.692;2022-09-09T00:32:13;14.50;99.90
53752;DHT22;41095;53.090;6.692;2022-09-09T00:34:56;14.40;99.90
53752;DHT22;41095;53.090;6.692;2022-09-09T00:37:25;14.40;99.90
53752;DHT22;41095;53.090;6.692;2022-09-09T00:39:55;14.40;99.90
53752;DHT22;41095;53.090;6.692;2022-09-09T00:45:51;14.40;99.90
53752;DHT22;41095;53.090;6.692;2022-09-09T00:48:11;14.40;99.90
53752;DHT22;41095;53.090;6.692;2022-09-09T00:50:55;14.40;99.90
53752;DHT22;41095;53.090;6.692;2022-09-09T00:53:51;14.40;99.90
53752;DHT22;41095;53.090;6.692;2022-09-09T00:56:24;14.30;99.90
53752;DHT22;41095;53.090;6.692;2022-09-09T01:01:23;14.30;99.90
53752;DHT22;41095;53.090;6.692;2022-09-09T01:03:55;14.30;99.90
53752;DHT22;41095;53.090;6.692;2022-09-09T01:06:32;14.30;99.90
53752;DHT22;41095;53.090;6.692;2022-09-09T01:09:04;14.30;99.90
53752;DHT22;41095;53.090;6.692;2022-09-09T01:14:05;14.20;99.90
53752;DHT22;41095;53.090;6.692;2022-09-09T01:16:36;14.30;99.90
53752;DHT22;41095;53.090;6.692;2022-09-09T01:19:03;14.20;99.90
53752;DHT22;41095;53.090;6.692;2022-09-09T01:24:29;14.30;99.90
53752;DHT22;41095;53.090;6.692;2022-09-09T01:26:59;14.20;99.90
53752;DHT22;41095;53.090;6.692;2022-09-09T01:29:26;14.20;99.90
53752;DHT22;41095;53.090;6.692;2022-09-09T01:32:35;14.20;99.90
53752;DHT22;41095;53.090;6.692;2022-09-09T01:34:48;14.20;99.90
53752;DHT22;41095;53.090;6.692;2022-09-09T01:37:13;14.10;99.90
53752;DHT22;41095;53.090;6.692;2022-09-09T01:39:42;14.10;99.90
53752;DHT22;41095;53.090;6.692;2022-09-09T01:42:11;14.10;99.90
53752;DHT22;41095;53.090;6.692;2022-09-09T01:44:38;14.10;99.90
53752;DHT22;41095;53.090;6.692;2022-09-09T01:47:04;14.10;99.90
53752;DHT22;41095;53.090;6.692;2022-09-09T01:49:30;14.10;99.90
53752;DHT22;41095;53.090;6.692;2022-09-09T01:51:58;14.10;99.90
53752;DHT22;41095;53.090;6.692;2022-09-09T01:54:27;14.10;99.90
53752;DHT22;41095;53.090;6.692;2022-09-09T01:57:06;14.10;99.90
53752;DHT22;41095;53.090;6.692;2022-09-09T02:00:04;14.10;99.90
53752;DHT22;41095;53.090;6.692;2022-09-09T02:03:00;14.10;99.90
53752;DHT22;41095;53.090;6.692;2022-09-09T02:05:38;14.10;99.90
53752;DHT22;41095;53.090;6.692;2022-09-09T02:08:53;14.10;99.90
53752;DHT22;41095;53.090;6.692;2022-09-09T02:11:06;14.20;99.90
53752;DHT22;41095;53.090;6.692;2022-09-09T02:13:35;14.20;99.90
53752;DHT22;41095;53.090;6.692;2022-09-09T02:18:46;14.20;99.90
53752;DHT22;41095;53.090;6.692;2022-09-09T02:21:13;14.20;99.90
53752;DHT22;41095;53.090;6.692;2022-09-09T02:23:41;14.30;99.90
53752;DHT22;41095;53.090;6.692;2022-09-09T02:26:09;14.30;99.90
53752;DHT22;41095;53.090;6.692;2022-09-09T02:28:38;14.30;99.90
53752;DHT22;41095;53.090;6.692;2022-09-09T02:31:05;14.30;99.90
53752;DHT22;41095;53.090;6.692;2022-09-09T02:33:35;14.40;99.90
53752;DHT22;41095;53.090;6.692;2022-09-09T02:36:03;14.40;99.90
53752;DHT22;41095;53.090;6.692;2022-09-09T02:38:36;14.40;99.90
53752;DHT22;41095;53.090;6.692;2022-09-09T02:41:05;14.40;99.90
53752;DHT22;41095;53.090;6.692;2022-09-09T02:43:35;14.40;99.90
53752;DHT22;41095;53.090;6.692;2022-09-09T02:46:24;14.40;99.90
53752;DHT22;41095;53.090;6.692;2022-09-09T02:52:04;14.50;99.90
53752;DHT22;41095;53.090;6.692;2022-09-09T02:54:37;14.50;99.90
53752;DHT22;41095;53.090;6.692;2022-09-09T02:57:11;14.50;99.90
53752;DHT22;41095;53.090;6.692;2022-09-09T02:59:38;14.60;99.90
53752;DHT22;41095;53.090;6.692;2022-09-09T03:02:04;14.60;99.90
53752;DHT22;41095;53.090;6.692;2022-09-09T03:04:30;14.60;99.90
53752;DHT22;41095;53.090;6.692;2022-09-09T03:06:57;14.60;99.90
53752;DHT22;41095;53.090;6.692;2022-09-09T03:09:23;14.60;99.90
53752;DHT22;41095;53.090;6.692;2022-09-09T03:11:50;14.70;99.90
53752;DHT22;41095;53.090;6.692;2022-09-09T03:14:16;14.70;99.90
53752;DHT22;41095;53.090;6.692;2022-09-09T03:16:42;14.70;99.90
53752;DHT22;41095;53.090;6.692;2022-09-09T03:19:08;14.70;99.90
53752;DHT22;41095;53.090;6.692;2022-09-09T03:21:34;14.70;99.90
53752;DHT22;41095;53.090;6.692;2022-09-09T03:24:01;14.70;99.90
53752;DHT22;41095;53.090;6.692;2022-09-09T03:26:29;14.70;99.90
53752;DHT22;41095;53.090;6.692;2022-09-09T03:28:56;14.80;99.90
53752;DHT22;41095;53.090;6.692;2022-09-09T03:31:21;14.80;99.90
53752;DHT22;41095;53.090;6.692;2022-09-09T03:33:47;14.80;99.90
53752;DHT22;41095;53.090;6.692;2022-09-09T03:36:14;14.80;99.90
53752;DHT22;41095;53.090;6.692;2022-09-09T03:38:40;14.80;99.90
53752;DHT22;41095;53.090;6.692;2022-09-09T03:41:06;14.90;99.90
53752;DHT22;41095;53.090;6.692;2022-09-09T03:43:33;14.90;99.90
53752;DHT22;41095;53.090;6.692;2022-09-09T03:45:59;14.90;99.90
53752;DHT22;41095;53.090;6.692;2022-09-09T03:48:25;14.90;99.90
53752;DHT22;41095;53.090;6.692;2022-09-09T03:50:54;14.90;99.90
53752;DHT22;41095;53.090;6.692;2022-09-09T03:53:23;14.90;99.90
53752;DHT22;41095;53.090;6.692;2022-09-09T03:55:51;15.00;99.90
53752;DHT22;41095;53.090;6.692;2022-09-09T03:58:21;15.00;99.90
53752;DHT22;41095;53.090;6.692;2022-09-09T04:01:13;15.00;99.90
53752;DHT22;41095;53.090;6.692;2022-09-09T04:03:39;15.00;99.90
53752;DHT22;41095;53.090;6.692;2022-09-09T04:06:07;15.00;99.90
53752;DHT22;41095;53.090;6.692;2022-09-09T04:08:33;15.00;99.90
53752;DHT22;41095;53.090;6.692;2022-09-09T04:11:01;15.00;99.90
53752;DHT22;41095;53.090;6.692;2022-09-09T04:13:30;15.00;99.90
53752;DHT22;41095;53.090;6.692;2022-09-09T04:16:00;14.90;99.90
53752;DHT22;41095;53.090;6.692;2022-09-09T04:18:27;15.00;99.90
53752;DHT22;41095;53.090;6.692;2022-09-09T04:20:54;15.00;99.90
53752;DHT22;41095;53.090;6.692;2022-09-09T04:23:23;14.90;99.90
53752;DHT22;41095;53.090;6.692;2022-09-09T04:25:53;14.90;99.90
53752;DHT22;41095;53.090;6.692;2022-09-09T04:28:20;14.90;99.90
53752;DHT22;41095;53.090;6.692;2022-09-09T04:30:46;14.90;99.90
53752;DHT22;41095;53.090;6.692;2022-09-09T04:33:13;14.90;99.90
53752;DHT22;41095;53.090;6.692;2022-09-09T04:35:44;14.90;99.90
53752;DHT22;41095;53.090;6.692;2022-09-09T04:38:10;14.90;99.90
53752;DHT22;41095;53.090;6.692;2022-09-09T04:40:36;14.90;99.90
53752;DHT22;41095;53.090;6.692;2022-09-09T04:43:02;14.90;99.90
53752;DHT22;41095;53.090;6.692;2022-09-09T04:45:32;14.90;99.90
53752;DHT22;41095;53.090;6.692;2022-09-09T04:47:58;14.90;99.90
53752;DHT22;41095;53.090;6.692;2022-09-09T04:50:24;14.80;99.90
53752;DHT22;41095;53.090;6.692;2022-09-09T04:52:51;14.80;99.90
53752;DHT22;41095;53.090;6.692;2022-09-09T04:55:16;14.80;99.90
53752;DHT22;41095;53.090;6.692;2022-09-09T04:57:42;14.80;99.90
53752;DHT22;41095;53.090;6.692;2022-09-09T05:00:08;14.80;99.90
53752;DHT22;41095;53.090;6.692;2022-09-09T05:02:39;14.80;99.90
53752;DHT22;41095;53.090;6.692;2022-09-09T05:05:05;14.80;99.90
53752;DHT22;41095;53.090;6.692;2022-09-09T05:07:31;14.80;99.90
53752;DHT22;41095;53.090;6.692;2022-09-09T05:09:57;14.80;99.90
53752;DHT22;41095;53.090;6.692;2022-09-09T05:12:23;14.80;99.90
53752;DHT22;41095;53.090;6.692;2022-09-09T05:14:51;14.80;99.90
53752;DHT22;41095;53.090;6.692;2022-09-09T05:17:17;14.70;99.90
53752;DHT22;41095;53.090;6.692;2022-09-09T05:19:43;14.60;99.90
53752;DHT22;41095;53.090;6.692;2022-09-09T05:22:10;14.80;99.90
53752;DHT22;41095;53.090;6.692;2022-09-09T05:24:37;14.70;99.90
53752;DHT22;41095;53.090;6.692;2022-09-09T05:27:04;14.70;99.90
53752;DHT22;41095;53.090;6.692;2022-09-09T05:29:32;14.70;99.90
53752;DHT22;41095;53.090;6.692;2022-09-09T05:31:59;14.70;99.90
53752;DHT22;41095;53.090;6.692;2022-09-09T05:34:25;14.70;99.90
53752;DHT22;41095;53.090;6.692;2022-09-09T05:36:51;14.70;99.90
53752;DHT22;41095;53.090;6.692;2022-09-09T05:39:18;14.70;99.90
53752;DHT22;41095;53.090;6.692;2022-09-09T05:41:43;14.70;99.90
53752;DHT22;41095;53.090;6.692;2022-09-09T05:44:09;14.70;99.90
53752;DHT22;41095;53.090;6.692;2022-09-09T05:46:35;14.70;99.90
53752;DHT22;41095;53.090;6.692;2022-09-09T05:49:02;14.70;99.90
53752;DHT22;41095;53.090;6.692;2022-09-09T05:51:29;14.70;99.90
53752;DHT22;41095;53.090;6.692;2022-09-09T05:53:58;14.70;99.90
53752;DHT22;41095;53.090;6.692;2022-09-09T05:56:25;14.70;99.90
53752;DHT22;41095;53.090;6.692;2022-09-09T05:58:52;14.70;99.90
53752;DHT22;41095;53.090;6.692;2022-09-09T06:01:20;14.70;99.90
53752;DHT22;41095;53.090;6.692;2022-09-09T06:03:48;14.70;99.90
53752;DHT22;41095;53.090;6.692;2022-09-09T06:06:20;14.70;99.90
53752;DHT22;41095;53.090;6.692;2022-09-09T06:08:46;14.80;99.90
53752;DHT22;41095;53.090;6.692;2022-09-09T06:11:15;14.80;99.90
53752;DHT22;41095;53.090;6.692;2022-09-09T06:13:48;14.80;99.90
53752;DHT22;41095;53.090;6.692;2022-09-09T06:16:25;14.80;99.90
53752;DHT22;41095;53.090;6.692;2022-09-09T06:18:54;14.80;99.90
53752;DHT22;41095;53.090;6.692;2022-09-09T06:21:29;14.90;99.90
53752;DHT22;41095;53.090;6.692;2022-09-09T06:23:57;14.90;99.90
53752;DHT22;41095;53.090;6.692;2022-09-09T06:26:36;14.90;99.90
53752;DHT22;41095;53.090;6.692;2022-09-09T06:29:12;15.00;99.90
53752;DHT22;41095;53.090;6.692;2022-09-09T06:31:52;15.00;99.90
53752;DHT22;41095;53.090;6.692;2022-09-09T06:34:47;15.00;99.90
53752;DHT22;41095;53.090;6.692;2022-09-09T06:37:23;15.10;99.90
53752;DHT22;41095;53.090;6.692;2022-09-09T06:39:52;15.20;99.90
53752;DHT22;41095;53.090;6.692;2022-09-09T06:42:18;15.20;99.90
53752;DHT22;41095;53.090;6.692;2022-09-09T06:45:03;15.40;99.90
53752;DHT22;41095;53.090;6.692;2022-09-09T06:47:32;15.40;99.90
53752;DHT22;41095;53.090;6.692;2022-09-09T06:50:18;15.50;99.90
53752;DHT22;41095;53.090;6.692;2022-09-09T06:52:47;15.50;99.90
53752;DHT22;41095;53.090;6.692;2022-09-09T06:55:15;15.70;99.90
53752;DHT22;41095;53.090;6.692;2022-09-09T06:57:48;15.70;99.90
53752;DHT22;41095;53.090;6.692;2022-09-09T07:00:14;15.90;99.90
53752;DHT22;41095;53.090;6.692;2022-09-09T07:02:50;15.80;99.90
53752;DHT22;41095;53.090;6.692;2022-09-09T07:05:37;15.90;99.90
53752;DHT22;41095;53.090;6.692;2022-09-09T07:08:04;15.90;99.90
53752;DHT22;41095;53.090;6.692;2022-09-09T07:10:35;15.90;99.90
53752;DHT22;41095;53.090;6.692;2022-09-09T07:13:07;15.90;99.90
53752;DHT22;41095;53.090;6.692;2022-09-09T07:15:39;15.90;99.90
53752;DHT22;41095;53.090;6.692;2022-09-09T07:18:14;16.10;99.90
53752;DHT22;41095;53.090;6.692;2022-09-09T07:20:40;16.10;99.90
53752;DHT22;41095;53.090;6.692;2022-09-09T07:23:09;16.20;99.90
53752;DHT22;41095;53.090;6.692;2022-09-09T07:25:35;16.40;99.90
53752;DHT22;41095;53.090;6.692;2022-09-09T07:28:04;16.50;99.90
53752;DHT22;41095;53.090;6.692;2022-09-09T07:30:37;16.70;99.90
53752;DHT22;41095;53.090;6.692;2022-09-09T07:33:06;16.80;99.90
53752;DHT22;41095;53.090;6.692;2022-09-09T07:35:32;16.90;99.90
53752;DHT22;41095;53.090;6.692;2022-09-09T07:38:06;17.00;99.90
53752;DHT22;41095;53.090;6.692;2022-09-09T07:40:33;17.20;99.90
53752;DHT22;41095;53.090;6.692;2022-09-09T07:43:00;17.50;99.90
53752;DHT22;41095;53.090;6.692;2022-09-09T07:45:33;17.60;99.90
53752;DHT22;41095;53.090;6.692;2022-09-09T07:48:00;17.50;99.90
53752;DHT22;41095;53.090;6.692;2022-09-09T07:50:29;17.50;99.90
53752;DHT22;41095;53.090;6.692;2022-09-09T07:53:02;17.70;99.90
53752;DHT22;41095;53.090;6.692;2022-09-09T07:55:30;17.60;99.90
53752;DHT22;41095;53.090;6.692;2022-09-09T07:57:56;17.60;99.90
53752;DHT22;41095;53.090;6.692;2022-09-09T08:00:25;17.70;99.90
53752;DHT22;41095;53.090;6.692;2022-09-09T08:03:05;17.80;99.90
53752;DHT22;41095;53.090;6.692;2022-09-09T08:05:38;17.90;99.90
53752;DHT22;41095;53.090;6.692;2022-09-09T08:08:11;17.70;99.90
53752;DHT22;41095;53.090;6.692;2022-09-09T08:10:36;18.30;99.90
53752;DHT22;41095;53.090;6.692;2022-09-09T08:13:02;19.10;99.90
53752;DHT22;41095;53.090;6.692;2022-09-09T08:15:28;20.10;99.90
53752;DHT22;41095;53.090;6.692;2022-09-09T08:17:56;20.50;99.90
53752;DHT22;41095;53.090;6.692;2022-09-09T08:20:22;20.80;99.90
53752;DHT22;41095;53.090;6.692;2022-09-09T08:22:48;21.30;99.90
53752;DHT22;41095;53.090;6.692;2022-09-09T08:25:31;21.60;99.90
53752;DHT22;41095;53.090;6.692;2022-09-09T08:27:57;21.20;99.90
53752;DHT22;41095;53.090;6.692;2022-09-09T08:30:24;20.80;99.90
53752;DHT22;41095;53.090;6.692;2022-09-09T08:32:51;20.70;99.90
53752;DHT22;41095;53.090;6.692;2022-09-09T08:35:16;20.40;99.90
53752;DHT22;41095;53.090;6.692;2022-09-09T08:37:45;20.00;99.90
53752;DHT22;41095;53.090;6.692;2022-09-09T08:40:36;19.70;99.90
53752;DHT22;41095;53.090;6.692;2022-09-09T08:43:16;19.50;99.90
53752;DHT22;41095;53.090;6.692;2022-09-09T08:46:04;19.40;99.90
53752;DHT22;41095;53.090;6.692;2022-09-09T08:49:00;19.30;99.90
53752;DHT22;41095;53.090;6.692;2022-09-09T08:51:33;19.40;99.90
53752;DHT22;41095;53.090;6.692;2022-09-09T08:54:02;19.40;99.90
53752;DHT22;41095;53.090;6.692;2022-09-09T08:56:35;19.70;99.90
53752;DHT22;41095;53.090;6.692;2022-09-09T08:59:02;20.00;99.90
53752;DHT22;41095;53.090;6.692;2022-09-09T09:10:24;20.70;99.90
53752;DHT22;41095;53.090;6.692;2022-09-09T09:12:50;21.30;99.90
53752;DHT22;41095;53.090;6.692;2022-09-09T09:18:12;22.00;99.90
53752;DHT22;41095;53.090;6.692;2022-09-09T09:21:04;22.00;99.90
53752;DHT22;41095;53.090;6.692;2022-09-09T09:26:29;21.90;99.90
53752;DHT22;41095;53.090;6.692;2022-09-09T09:28:58;21.90;99.90
53752;DHT22;41095;53.090;6.692;2022-09-09T09:31:24;22.10;99.90
53752;DHT22;41095;53.090;6.692;2022-09-09T09:34:08;22.10;99.90
53752;DHT22;41095;53.090;6.692;2022-09-09T09:36:38;22.30;99.90
53752;DHT22;41095;53.090;6.692;2022-09-09T09:39:08;22.70;99.90
53752;DHT22;41095;53.090;6.692;2022-09-09T09:41:40;23.60;99.90
53752;DHT22;41095;53.090;6.692;2022-09-09T09:50:00;24.90;99.90
53752;DHT22;41095;53.090;6.692;2022-09-09T09:52:30;24.40;99.90
53752;DHT22;41095;53.090;6.692;2022-09-09T09:55:03;23.90;99.90
53752;DHT22;41095;53.090;6.692;2022-09-09T09:57:31;23.10;99.90
53752;DHT22;41095;53.090;6.692;2022-09-09T10:00:21;22.50;99.90
53752;DHT22;41095;53.090;6.692;2022-09-09T10:02:48;22.60;99.90
53752;DHT22;41095;53.090;6.692;2022-09-09T10:05:29;23.20;99.90
53752;DHT22;41095;53.090;6.692;2022-09-09T10:08:16;23.90;99.90
53752;DHT22;41095;53.090;6.692;2022-09-09T10:11:06;24.50;99.90
53752;DHT22;41095;53.090;6.692;2022-09-09T10:16:37;24.30;99.90
53752;DHT22;41095;53.090;6.692;2022-09-09T10:19:33;23.70;99.90
53752;DHT22;41095;53.090;6.692;2022-09-09T10:30:41;22.10;99.90
53752;DHT22;41095;53.090;6.692;2022-09-09T10:36:23;22.80;99.90
53752;DHT22;41095;53.090;6.692;2022-09-09T10:39:03;22.40;99.90
53752;DHT22;41095;53.090;6.692;2022-09-09T10:50:53;23.60;99.60
53752;DHT22;41095;53.090;6.692;2022-09-09T10:54:13;23.40;99.90
53752;DHT22;41095;53.090;6.692;2022-09-09T10:56:52;23.20;99.90
53752;DHT22;41095;53.090;6.692;2022-09-09T10:59:43;22.70;99.90
53752;DHT22;41095;53.090;6.692;2022-09-09T11:02:17;22.50;99.90
53752;DHT22;41095;53.090;6.692;2022-09-09T11:04:53;22.20;99.90
53752;DHT22;41095;53.090;6.692;2022-09-09T11:07:30;22.20;99.90
53752;DHT22;41095;53.090;6.692;2022-09-09T11:10:05;22.30;99.90
53752;DHT22;41095;53.090;6.692;2022-09-09T11:12:35;22.30;99.90
53752;DHT22;41095;53.090;6.692;2022-09-09T11:15:38;22.40;99.90
53752;DHT22;41095;53.090;6.692;2022-09-09T11:18:10;22.40;99.90
53752;DHT22;41095;53.090;6.692;2022-09-09T11:20:45;22.60;99.90
53752;DHT22;41095;53.090;6.692;2022-09-09T11:23:32;22.70;99.90
53752;DHT22;41095;53.090;6.692;2022-09-09T11:26:06;22.50;99.90
53752;DHT22;41095;53.090;6.692;2022-09-09T11:35:53;22.80;99.90
53752;DHT22;41095;53.090;6.692;2022-09-09T11:41:04;22.70;99.90
53752;DHT22;41095;53.090;6.692;2022-09-09T11:43:53;22.70;99.90
53752;DHT22;41095;53.090;6.692;2022-09-09T11:46:22;22.80;99.90
53752;DHT22;41095;53.090;6.692;2022-09-09T11:49:27;22.70;99.90
53752;DHT22;41095;53.090;6.692;2022-09-09T11:51:54;22.40;99.30
53752;DHT22;41095;53.090;6.692;2022-09-09T11:54:30;22.30;99.90
53752;DHT22;41095;53.090;6.692;2022-09-09T11:56:58;22.10;99.90
53752;DHT22;41095;53.090;6.692;2022-09-09T11:59:31;22.20;99.90
53752;DHT22;41095;53.090;6.692;2022-09-09T12:02:30;22.10;99.90
53752;DHT22;41095;53.090;6.692;2022-09-09T12:05:08;22.30;99.90
53752;DHT22;41095;53.090;6.692;2022-09-09T12:07:57;22.60;99.90
53752;DHT22;41095;53.090;6.692;2022-09-09T12:10:52;22.90;99.90
53752;DHT22;41095;53.090;6.692;2022-09-09T12:15:51;22.70;99.90
53752;DHT22;41095;53.090;6.692;2022-09-09T12:18:38;22.70;99.90
53752;DHT22;41095;53.090;6.692;2022-09-09T12:21:41;22.50;99.90
53752;DHT22;41095;53.090;6.692;2022-09-09T12:27:33;22.40;99.30
53752;DHT22;41095;53.090;6.692;2022-09-09T12:30:14;22.40;99.90
53752;DHT22;41095;53.090;6.692;2022-09-09T12:32:42;22.30;99.90
53752;DHT22;41095;53.090;6.692;2022-09-09T12:35:26;22.40;99.90
53752;DHT22;41095;53.090;6.692;2022-09-09T12:38:00;22.40;99.90
53752;DHT22;41095;53.090;6.692;2022-09-09T12:40:36;22.50;99.90
53752;DHT22;41095;53.090;6.692;2022-09-09T12:43:25;22.70;99.90
53752;DHT22;41095;53.090;6.692;2022-09-09T12:46:08;22.70;99.90
53752;DHT22;41095;53.090;6.692;2022-09-09T12:48:39;22.60;99.90
53752;DHT22;41095;53.090;6.692;2022-09-09T12:51:25;22.50;99.90
53752;DHT22;41095;53.090;6.692;2022-09-09T12:53:52;22.50;99.90
53752;DHT22;41095;53.090;6.692;2022-09-09T12:56:30;22.50;99.90
53752;DHT22;41095;53.090;6.692;2022-09-09T12:59:03;22.50;99.90
53752;DHT22;41095;53.090;6.692;2022-09-09T13:01:33;22.50;99.90
53752;DHT22;41095;53.090;6.692;2022-09-09T13:04:20;22.50;99.90
53752;DHT22;41095;53.090;6.692;2022-09-09T13:06:47;22.50;99.90
53752;DHT22;41095;53.090;6.692;2022-09-09T13:09:20;22.50;99.90
53752;DHT22;41095;53.090;6.692;2022-09-09T13:11:56;22.80;99.90
53752;DHT22;41095;53.090;6.692;2022-09-09T13:14:31;23.00;99.90
53752;DHT22;41095;53.090;6.692;2022-09-09T13:17:39;23.10;99.90
53752;DHT22;41095;53.090;6.692;2022-09-09T13:20:19;22.80;98.20
53752;DHT22;41095;53.090;6.692;2022-09-09T13:23:25;22.80;99.70
53752;DHT22;41095;53.090;6.692;2022-09-09T13:26:06;22.80;99.90
53752;DHT22;41095;53.090;6.692;2022-09-09T13:28:33;22.70;99.90
53752;DHT22;41095;53.090;6.692;2022-09-09T13:31:22;22.60;99.90
53752;DHT22;41095;53.090;6.692;2022-09-09T13:33:51;22.30;99.90
53752;DHT22;41095;53.090;6.692;2022-09-09T13:36:31;22.20;99.90
53752;DHT22;41095;53.090;6.692;2022-09-09T13:39:02;21.90;99.90
53752;DHT22;41095;53.090;6.692;2022-09-09T13:41:46;21.60;99.90
53752;DHT22;41095;53.090;6.692;2022-09-09T13:44:27;21.30;99.90
53752;DHT22;41095;53.090;6.692;2022-09-09T13:47:06;21.10;99.90
53752;DHT22;41095;53.090;6.692;2022-09-09T13:49:32;20.80;99.90
53752;DHT22;41095;53.090;6.692;2022-09-09T13:52:19;20.60;99.90
53752;DHT22;41095;53.090;6.692;2022-09-09T13:54:53;20.80;99.90
53752;DHT22;41095;53.090;6.692;2022-09-09T13:57:25;20.80;99.90
53752;DHT22;41095;53.090;6.692;2022-09-09T14:00:19;21.10;99.90
53752;DHT22;41095;53.090;6.692;2022-09-09T14:03:05;21.30;99.90
53752;DHT22;41095;53.090;6.692;2022-09-09T14:05:42;21.50;99.90
53752;DHT22;41095;53.090;6.692;2022-09-09T14:08:23;21.70;99.90
53752;DHT22;41095;53.090;6.692;2022-09-09T14:10:56;21.90;99.90
53752;DHT22;41095;53.090;6.692;2022-09-09T14:13:23;22.00;99.90
53752;DHT22;41095;53.090;6.692;2022-09-09T14:15:52;22.20;99.90
53752;DHT22;41095;53.090;6.692;2022-09-09T14:18:25;22.30;99.90
53752;DHT22;41095;53.090;6.692;2022-09-09T14:20:59;22.20;99.90
53752;DHT22;41095;53.090;6.692;2022-09-09T14:23:25;22.10;99.90
53752;DHT22;41095;53.090;6.692;2022-09-09T14:25:52;21.80;99.90
53752;DHT22;41095;53.090;6.692;2022-09-09T14:28:18;21.60;99.90
53752;DHT22;41095;53.090;6.692;2022-09-09T14:30:50;21.40;99.90
53752;DHT22;41095;53.090;6.692;2022-09-09T14:33:17;21.10;99.90
53752;DHT22;41095;53.090;6.692;2022-09-09T14:35:49;20.70;99.90
53752;DHT22;41095;53.090;6.692;2022-09-09T14:38:39;20.40;99.90
53752;DHT22;41095;53.090;6.692;2022-09-09T14:41:14;20.20;99.90
53752;DHT22;41095;53.090;6.692;2022-09-09T14:43:43;20.20;99.90
53752;DHT22;41095;53.090;6.692;2022-09-09T14:46:16;20.40;99.90
53752;DHT22;41095;53.090;6.692;2022-09-09T14:48:45;20.70;99.90
53752;DHT22;41095;53.090;6.692;2022-09-09T14:51:18;20.80;99.90
53752;DHT22;41095;53.090;6.692;2022-09-09T14:53:56;20.80;99.90
53752;DHT22;41095;53.090;6.692;2022-09-09T14:56:26;20.90;99.90
53752;DHT22;41095;53.090;6.692;2022-09-09T14:58:57;20.90;99.90
53752;DHT22;41095;53.090;6.692;2022-09-09T15:01:24;20.80;99.90
53752;DHT22;41095;53.090;6.692;2022-09-09T15:04:00;20.80;99.90
53752;DHT22;41095;53.090;6.692;2022-09-09T15:06:55;20.80;99.90
53752;DHT22;41095;53.090;6.692;2022-09-09T15:09:28;20.70;99.90
53752;DHT22;41095;53.090;6.692;2022-09-09T15:12:05;20.90;99.90
53752;DHT22;41095;53.090;6.692;2022-09-09T15:14:30;21.00;99.90
53752;DHT22;41095;53.090;6.692;2022-09-09T15:16:56;21.00;99.90
53752;DHT22;41095;53.090;6.692;2022-09-09T15:19:22;21.20;99.90
53752;DHT22;41095;53.090;6.692;2022-09-09T15:21:53;21.20;99.90
53752;DHT22;41095;53.090;6.692;2022-09-09T15:24:20;21.10;99.90
53752;DHT22;41095;53.090;6.692;2022-09-09T15:26:45;21.20;99.90
53752;DHT22;41095;53.090;6.692;2022-09-09T15:29:12;21.30;99.90
53752;DHT22;41095;53.090;6.692;2022-09-09T15:31:39;21.20;99.90
53752;DHT22;41095;53.090;6.692;2022-09-09T15:34:08;21.20;99.90
53752;DHT22;41095;53.090;6.692;2022-09-09T15:36:39;21.30;99.90
53752;DHT22;41095;53.090;6.692;2022-09-09T15:39:10;21.30;99.90
53752;DHT22;41095;53.090;6.692;2022-09-09T15:41:43;21.20;99.90
53752;DHT22;41095;53.090;6.692;2022-09-09T15:44:11;21.00;99.90
53752;DHT22;41095;53.090;6.692;2022-09-09T15:46:58;20.80;99.90
53752;DHT22;41095;53.090;6.692;2022-09-09T15:49:26;20.50;99.90
53752;DHT22;41095;53.090;6.692;2022-09-09T15:52:11;20.50;99.90
53752;DHT22;41095;53.090;6.692;2022-09-09T15:54:38;20.30;99.90
53752;DHT22;41095;53.090;6.692;2022-09-09T15:57:09;20.30;99.90
53752;DHT22;41095;53.090;6.692;2022-09-09T15:59:36;20.20;99.90
53752;DHT22;41095;53.090;6.692;2022-09-09T16:02:09;20.10;99.90
53752;DHT22;41095;53.090;6.692;2022-09-09T16:04:36;20.20;99.90
53752;DHT22;41095;53.090;6.692;2022-09-09T16:07:22;20.10;99.90
53752;DHT22;41095;53.090;6.692;2022-09-09T16:09:48;20.00;99.90
53752;DHT22;41095;53.090;6.692;2022-09-09T16:12:18;19.90;99.90
53752;DHT22;41095;53.090;6.692;2022-09-09T16:14:45;20.00;99.90
53752;DHT22;41095;53.090;6.692;2022-09-09T16:17:18;20.10;99.90
53752;DHT22;41095;53.090;6.692;2022-09-09T16:19:54;20.20;99.90
53752;DHT22;41095;53.090;6.692;2022-09-09T16:22:20;20.30;99.90
53752;DHT22;41095;53.090;6.692;2022-09-09T16:25:00;20.30;99.90
53752;DHT22;41095;53.090;6.692;2022-09-09T16:27:33;20.20;99.90
53752;DHT22;41095;53.090;6.692;2022-09-09T16:30:06;20.20;99.90
53752;DHT22;41095;53.090;6.692;2022-09-09T16:32:46;20.20;99.90
53752;DHT22;41095;53.090;6.692;2022-09-09T16:35:12;20.10;99.90
53752;DHT22;41095;53.090;6.692;2022-09-09T16:37:43;19.90;99.90
53752;DHT22;41095;53.090;6.692;2022-09-09T16:40:14;19.80;99.90
53752;DHT22;41095;53.090;6.692;2022-09-09T16:42:42;19.70;99.90
53752;DHT22;41095;53.090;6.692;2022-09-09T16:45:15;19.60;99.90
53752;DHT22;41095;53.090;6.692;2022-09-09T16:47:41;19.50;99.90
53752;DHT22;41095;53.090;6.692;2022-09-09T16:50:07;19.40;99.90
53752;DHT22;41095;53.090;6.692;2022-09-09T16:52:39;19.30;99.90
53752;DHT22;41095;53.090;6.692;2022-09-09T16:55:05;19.20;99.90
53752;DHT22;41095;53.090;6.692;2022-09-09T16:57:32;19.10;99.90
53752;DHT22;41095;53.090;6.692;2022-09-09T17:00:05;19.10;99.90
53752;DHT22;41095;53.090;6.692;2022-09-09T17:02:48;19.10;99.90
53752;DHT22;41095;53.090;6.692;2022-09-09T17:05:15;19.10;99.90
53752;DHT22;41095;53.090;6.692;2022-09-09T17:07:41;19.10;99.90
53752;DHT22;41095;53.090;6.692;2022-09-09T17:10:14;19.10;99.90
53752;DHT22;41095;53.090;6.692;2022-09-09T17:12:49;19.10;99.90
53752;DHT22;41095;53.090;6.692;2022-09-09T17:15:15;19.10;99.90
53752;DHT22;41095;53.090;6.692;2022-09-09T17:17:43;19.00;99.90
53752;DHT22;41095;53.090;6.692;2022-09-09T17:20:10;19.10;99.90
53752;DHT22;41095;53.090;6.692;2022-09-09T17:22:36;19.00;99.90
53752;DHT22;41095;53.090;6.692;2022-09-09T17:25:03;19.00;99.90
53752;DHT22;41095;53.090;6.692;2022-09-09T17:27:31;19.00;99.90